Airfield :
LOGIN :

Register | Disclaimer

   EN    FR    IT 

 










Legend :    VFR   Marginal VFR   IFR   Intensive IFR   Very Intensive IFR
Visi :
Ceiling :
>= 8 km
>= 3000ft
5 to 8 km
1000 to 3000 ft
1500m to 5 km
500 to 1000 ft
800 to 1500m
200 to 500 ft
< 800m
< 200 ft
Symbols :   Thunderstorms  Fog  Heavy snow  Heavy precipitations  Wind > 20 kt
SIGMETs :     Misc.  Thunderstorms  Icing  Turbulence  Mountain Waves  Volcanic Ashes






- Airport Elevation : 125 ft
- IATA code : MGL


EDLN - Mönchengladbach

CURRENT METAR :
  • 062220Z AUTO 24003KT 210V290 9999 // FEW045/// BKN061/// OVC110/// 18/11 Q1022

EXPIRED METARs :
  • 062150Z AUTO 23003KT 200V260 9999 // FEW044/// OVC120/// 18/11 Q1022
  • 062120Z AUTO 23003KT 9999 // SCT049/// BKN120/// 18/10 Q1022
  • 062050Z AUTO 24003KT 200V270 9999 // FEW050/// OVC120/// 18/10 Q1022
  • 062020Z AUTO 25003KT 220V290 9999 // BKN049/// OVC140/// 19/10 Q1022
  • 061950Z AUTO 26003KT 200V310 9999 // BKN049/// BKN140/// 19/10 Q1022

TAF TAF EDLN
Valid from the 06 at 18:00 until the 07 at 03:00 UTC


061700Z 0618/0703 28006KT 9999 BKN045



MET'MAP, your aeronautical weather chart ! - Copyright ORBIFLY December 2007 - Disclaimer

ORBIFLY MET'MAP TEAM :

Programming & Development : Alexandra Zaïnal
Original concept : Baudouin d'Aumeries
Technical & hardware support : Manuel Goepfert
Assistance : Marc-Olivier Méhu




SOURCES & CREDITS :

   NOAA